sensor_id;sensor_type;location;lat;lon;timestamp;temperature;humidity
51739;DHT22;37815;52.692;6.226;2023-05-02T00:01:33;15.30;94.00
51739;DHT22;37815;52.692;6.226;2023-05-02T00:06:35;15.20;94.00
51739;DHT22;37815;52.692;6.226;2023-05-02T00:11:36;15.20;94.00
51739;DHT22;37815;52.692;6.226;2023-05-02T00:16:36;15.20;94.00
51739;DHT22;37815;52.692;6.226;2023-05-02T00:21:42;15.20;94.00
51739;DHT22;37815;52.692;6.226;2023-05-02T00:26:43;15.20;94.10
51739;DHT22;37815;52.692;6.226;2023-05-02T00:31:43;15.30;94.10
51739;DHT22;37815;52.692;6.226;2023-05-02T00:36:44;15.10;94.10
51739;DHT22;37815;52.692;6.226;2023-05-02T00:41:44;15.30;94.20
51739;DHT22;37815;52.692;6.226;2023-05-02T00:46:45;15.10;94.20
51739;DHT22;37815;52.692;6.226;2023-05-02T00:51:46;15.10;94.20
51739;DHT22;37815;52.692;6.226;2023-05-02T00:56:47;15.30;94.30
51739;DHT22;37815;52.692;6.226;2023-05-02T01:01:59;15.00;94.20
51739;DHT22;37815;52.692;6.226;2023-05-02T01:12:47;15.00;94.30
51739;DHT22;37815;52.692;6.226;2023-05-02T01:17:49;15.00;94.30
51739;DHT22;37815;52.692;6.226;2023-05-02T01:22:51;15.00;94.30
51739;DHT22;37815;52.692;6.226;2023-05-02T01:33:05;14.90;94.30
51739;DHT22;37815;52.692;6.226;2023-05-02T01:38:07;14.90;94.30
51739;DHT22;37815;52.692;6.226;2023-05-02T01:43:08;14.90;94.30
51739;DHT22;37815;52.692;6.226;2023-05-02T01:48:09;15.10;94.40
51739;DHT22;37815;52.692;6.226;2023-05-02T01:53:11;14.80;94.30
51739;DHT22;37815;52.692;6.226;2023-05-02T01:58:15;14.80;94.30
51739;DHT22;37815;52.692;6.226;2023-05-02T02:03:17;14.90;94.30
51739;DHT22;37815;52.692;6.226;2023-05-02T02:08:18;15.00;94.30
51739;DHT22;37815;52.692;6.226;2023-05-02T02:13:27;14.80;94.60
51739;DHT22;37815;52.692;6.226;2023-05-02T02:18:35;14.70;94.30
51739;DHT22;37815;52.692;6.226;2023-05-02T02:23:38;14.70;94.30
51739;DHT22;37815;52.692;6.226;2023-05-02T02:28:42;14.90;94.30
51739;DHT22;37815;52.692;6.226;2023-05-02T02:33:43;14.70;94.30
51739;DHT22;37815;52.692;6.226;2023-05-02T02:44:25;14.70;94.30
51739;DHT22;37815;52.692;6.226;2023-05-02T02:54:50;14.60;94.30
51739;DHT22;37815;52.692;6.226;2023-05-02T03:00:00;14.60;94.20
51739;DHT22;37815;52.692;6.226;2023-05-02T03:05:03;14.60;94.30
51739;DHT22;37815;52.692;6.226;2023-05-02T03:10:05;14.50;94.30
51739;DHT22;37815;52.692;6.226;2023-05-02T03:20:33;14.50;94.30
51739;DHT22;37815;52.692;6.226;2023-05-02T03:25:34;14.40;94.30
51739;DHT22;37815;52.692;6.226;2023-05-02T03:30:36;14.40;94.30
51739;DHT22;37815;52.692;6.226;2023-05-02T03:35:40;14.90;94.40
51739;DHT22;37815;52.692;6.226;2023-05-02T03:40:41;14.80;94.40
51739;DHT22;37815;52.692;6.226;2023-05-02T03:45:42;14.80;94.40
51739;DHT22;37815;52.692;6.226;2023-05-02T03:50:43;15.10;94.50
51739;DHT22;37815;52.692;6.226;2023-05-02T03:55:43;14.30;94.30
51739;DHT22;37815;52.692;6.226;2023-05-02T04:00:46;14.30;94.30
51739;DHT22;37815;52.692;6.226;2023-05-02T04:05:47;14.20;94.30
51739;DHT22;37815;52.692;6.226;2023-05-02T04:10:50;14.60;94.70
51739;DHT22;37815;52.692;6.226;2023-05-02T04:15:50;14.60;94.40
51739;DHT22;37815;52.692;6.226;2023-05-02T04:20:51;14.60;94.40
51739;DHT22;37815;52.692;6.226;2023-05-02T04:25:53;14.10;94.20
51739;DHT22;37815;52.692;6.226;2023-05-02T04:30:55;14.10;94.20
51739;DHT22;37815;52.692;6.226;2023-05-02T04:35:55;14.10;94.20
51739;DHT22;37815;52.692;6.226;2023-05-02T04:40:56;14.10;94.20
51739;DHT22;37815;52.692;6.226;2023-05-02T04:45:57;14.00;94.20
51739;DHT22;37815;52.692;6.226;2023-05-02T04:50:58;14.70;94.30
51739;DHT22;37815;52.692;6.226;2023-05-02T04:55:58;14.00;94.20
51739;DHT22;37815;52.692;6.226;2023-05-02T05:00:59;14.00;94.20
51739;DHT22;37815;52.692;6.226;2023-05-02T05:06:01;14.50;94.30
51739;DHT22;37815;52.692;6.226;2023-05-02T05:11:01;14.20;94.20
51739;DHT22;37815;52.692;6.226;2023-05-02T05:16:04;14.00;94.10
51739;DHT22;37815;52.692;6.226;2023-05-02T05:21:06;13.90;94.10
51739;DHT22;37815;52.692;6.226;2023-05-02T05:26:10;13.90;94.00
51739;DHT22;37815;52.692;6.226;2023-05-02T05:31:12;13.90;94.00
51739;DHT22;37815;52.692;6.226;2023-05-02T05:36:13;14.00;94.00
51739;DHT22;37815;52.692;6.226;2023-05-02T05:41:14;13.90;94.00
51739;DHT22;37815;52.692;6.226;2023-05-02T05:46:15;13.80;94.00
51739;DHT22;37815;52.692;6.226;2023-05-02T05:51:15;13.80;94.00
51739;DHT22;37815;52.692;6.226;2023-05-02T05:56:16;13.80;94.00
51739;DHT22;37815;52.692;6.226;2023-05-02T06:01:19;14.30;94.10
51739;DHT22;37815;52.692;6.226;2023-05-02T06:06:20;14.00;93.90
51739;DHT22;37815;52.692;6.226;2023-05-02T06:11:20;13.80;93.80
51739;DHT22;37815;52.692;6.226;2023-05-02T06:16:21;13.90;93.80
51739;DHT22;37815;52.692;6.226;2023-05-02T06:21:22;13.90;93.70
51739;DHT22;37815;52.692;6.226;2023-05-02T06:26:22;13.80;93.50
51739;DHT22;37815;52.692;6.226;2023-05-02T06:31:26;14.10;93.60
51739;DHT22;37815;52.692;6.226;2023-05-02T06:36:26;13.80;93.40
51739;DHT22;37815;52.692;6.226;2023-05-02T06:41:27;13.80;93.40
51739;DHT22;37815;52.692;6.226;2023-05-02T06:46:28;13.80;93.40
51739;DHT22;37815;52.692;6.226;2023-05-02T06:51:30;14.50;93.60
51739;DHT22;37815;52.692;6.226;2023-05-02T06:56:31;13.80;93.40
51739;DHT22;37815;52.692;6.226;2023-05-02T07:01:32;14.30;93.60
51739;DHT22;37815;52.692;6.226;2023-05-02T07:06:33;13.80;93.50
51739;DHT22;37815;52.692;6.226;2023-05-02T07:11:36;13.80;93.40
51739;DHT22;37815;52.692;6.226;2023-05-02T07:16:37;13.80;93.30
51739;DHT22;37815;52.692;6.226;2023-05-02T07:21:38;14.10;93.30
51739;DHT22;37815;52.692;6.226;2023-05-02T07:26:38;13.80;93.50
51739;DHT22;37815;52.692;6.226;2023-05-02T07:31:39;13.90;93.20
51739;DHT22;37815;52.692;6.226;2023-05-02T07:36:40;14.40;93.20
51739;DHT22;37815;52.692;6.226;2023-05-02T07:41:40;14.50;93.50
51739;DHT22;37815;52.692;6.226;2023-05-02T07:46:41;13.90;93.00
51739;DHT22;37815;52.692;6.226;2023-05-02T07:51:41;14.00;93.00
51739;DHT22;37815;52.692;6.226;2023-05-02T07:56:44;13.90;93.20
51739;DHT22;37815;52.692;6.226;2023-05-02T08:01:44;14.10;93.00
51739;DHT22;37815;52.692;6.226;2023-05-02T08:06:45;14.30;93.00
51739;DHT22;37815;52.692;6.226;2023-05-02T08:11:46;14.20;93.00
51739;DHT22;37815;52.692;6.226;2023-05-02T08:16:46;14.40;93.00
51739;DHT22;37815;52.692;6.226;2023-05-02T08:21:47;13.90;92.90
51739;DHT22;37815;52.692;6.226;2023-05-02T08:26:48;13.90;92.90
51739;DHT22;37815;52.692;6.226;2023-05-02T08:31:48;13.90;92.80
51739;DHT22;37815;52.692;6.226;2023-05-02T08:36:49;13.90;92.70
51739;DHT22;37815;52.692;6.226;2023-05-02T08:41:50;13.90;92.70
51739;DHT22;37815;52.692;6.226;2023-05-02T08:46:51;14.10;92.70
51739;DHT22;37815;52.692;6.226;2023-05-02T08:51:53;14.00;92.60
51739;DHT22;37815;52.692;6.226;2023-05-02T08:56:55;14.00;92.50
51739;DHT22;37815;52.692;6.226;2023-05-02T09:02:00;14.80;92.70
51739;DHT22;37815;52.692;6.226;2023-05-02T09:07:03;14.00;92.50
51739;DHT22;37815;52.692;6.226;2023-05-02T09:12:04;14.50;92.60
51739;DHT22;37815;52.692;6.226;2023-05-02T09:17:05;14.10;92.50
51739;DHT22;37815;52.692;6.226;2023-05-02T09:22:05;14.10;92.50
51739;DHT22;37815;52.692;6.226;2023-05-02T09:27:06;14.10;92.40
51739;DHT22;37815;52.692;6.226;2023-05-02T09:32:06;14.70;92.60
51739;DHT22;37815;52.692;6.226;2023-05-02T09:37:07;14.30;92.50
51739;DHT22;37815;52.692;6.226;2023-05-02T09:42:08;14.40;92.60
51739;DHT22;37815;52.692;6.226;2023-05-02T09:47:08;14.80;92.70
51739;DHT22;37815;52.692;6.226;2023-05-02T09:52:13;14.00;92.50
51739;DHT22;37815;52.692;6.226;2023-05-02T09:57:14;14.10;92.50
51739;DHT22;37815;52.692;6.226;2023-05-02T10:02:16;14.90;92.70
51739;DHT22;37815;52.692;6.226;2023-05-02T10:07:25;14.20;92.50
51739;DHT22;37815;52.692;6.226;2023-05-02T10:12:29;14.40;92.40
51739;DHT22;37815;52.692;6.226;2023-05-02T10:17:38;14.20;92.30
51739;DHT22;37815;52.692;6.226;2023-05-02T10:22:42;14.30;92.30
51739;DHT22;37815;52.692;6.226;2023-05-02T10:28:00;14.20;92.30
51739;DHT22;37815;52.692;6.226;2023-05-02T10:33:02;14.30;92.20
51739;DHT22;37815;52.692;6.226;2023-05-02T10:38:03;14.30;92.20
51739;DHT22;37815;52.692;6.226;2023-05-02T10:43:05;14.60;92.20
51739;DHT22;37815;52.692;6.226;2023-05-02T10:58:29;14.60;91.90
51739;DHT22;37815;52.692;6.226;2023-05-02T11:03:54;14.50;91.90
51739;DHT22;37815;52.692;6.226;2023-05-02T11:19:29;14.90;91.70
51739;DHT22;37815;52.692;6.226;2023-05-02T11:24:37;14.60;91.70
51739;DHT22;37815;52.692;6.226;2023-05-02T11:29:54;14.70;91.70
51739;DHT22;37815;52.692;6.226;2023-05-02T11:34:56;14.60;91.60
51739;DHT22;37815;52.692;6.226;2023-05-02T11:40:12;14.70;91.70
51739;DHT22;37815;52.692;6.226;2023-05-02T11:45:13;14.70;91.50
51739;DHT22;37815;52.692;6.226;2023-05-02T11:50:14;14.70;91.60
51739;DHT22;37815;52.692;6.226;2023-05-02T11:55:17;14.80;91.60
51739;DHT22;37815;52.692;6.226;2023-05-02T12:00:18;14.80;91.50
51739;DHT22;37815;52.692;6.226;2023-05-02T12:05:27;14.80;91.50
51739;DHT22;37815;52.692;6.226;2023-05-02T12:10:35;14.80;91.40
51739;DHT22;37815;52.692;6.226;2023-05-02T12:15:37;15.10;91.50
51739;DHT22;37815;52.692;6.226;2023-05-02T12:20:37;14.80;91.40
51739;DHT22;37815;52.692;6.226;2023-05-02T12:25:40;14.80;91.40
51739;DHT22;37815;52.692;6.226;2023-05-02T12:30:40;15.10;91.40
51739;DHT22;37815;52.692;6.226;2023-05-02T12:35:41;14.90;91.40
51739;DHT22;37815;52.692;6.226;2023-05-02T12:40:53;14.90;91.30
51739;DHT22;37815;52.692;6.226;2023-05-02T12:46:09;14.90;91.30
51739;DHT22;37815;52.692;6.226;2023-05-02T12:51:21;15.00;91.20
51739;DHT22;37815;52.692;6.226;2023-05-02T12:56:22;15.00;91.20
51739;DHT22;37815;52.692;6.226;2023-05-02T13:01:24;14.90;91.40
51739;DHT22;37815;52.692;6.226;2023-05-02T13:06:25;15.60;91.60
51739;DHT22;37815;52.692;6.226;2023-05-02T13:11:25;14.90;91.40
51739;DHT22;37815;52.692;6.226;2023-05-02T13:16:26;15.20;91.50
51739;DHT22;37815;52.692;6.226;2023-05-02T13:21:27;14.90;91.40
51739;DHT22;37815;52.692;6.226;2023-05-02T13:26:28;14.90;91.40
51739;DHT22;37815;52.692;6.226;2023-05-02T13:31:29;14.90;91.50
51739;DHT22;37815;52.692;6.226;2023-05-02T13:36:29;14.90;91.50
51739;DHT22;37815;52.692;6.226;2023-05-02T13:41:30;15.00;91.50
51739;DHT22;37815;52.692;6.226;2023-05-02T13:46:31;15.20;91.60
51739;DHT22;37815;52.692;6.226;2023-05-02T13:51:35;14.90;91.60
51739;DHT22;37815;52.692;6.226;2023-05-02T13:56:36;15.40;91.70
51739;DHT22;37815;52.692;6.226;2023-05-02T14:01:37;15.10;91.70
51739;DHT22;37815;52.692;6.226;2023-05-02T14:06:39;14.90;91.70
51739;DHT22;37815;52.692;6.226;2023-05-02T14:11:40;14.90;91.70
51739;DHT22;37815;52.692;6.226;2023-05-02T14:16:42;14.90;91.70
51739;DHT22;37815;52.692;6.226;2023-05-02T14:21:42;14.90;91.60
51739;DHT22;37815;52.692;6.226;2023-05-02T14:26:43;15.00;91.50
51739;DHT22;37815;52.692;6.226;2023-05-02T14:31:46;15.10;91.50
51739;DHT22;37815;52.692;6.226;2023-05-02T14:36:47;14.70;91.40
51739;DHT22;37815;52.692;6.226;2023-05-02T14:41:48;15.00;91.50
51739;DHT22;37815;52.692;6.226;2023-05-02T14:46:48;15.00;91.60
51739;DHT22;37815;52.692;6.226;2023-05-02T14:51:53;15.00;91.70
51739;DHT22;37815;52.692;6.226;2023-05-02T14:56:53;14.90;91.70
51739;DHT22;37815;52.692;6.226;2023-05-02T15:01:54;15.00;91.80
51739;DHT22;37815;52.692;6.226;2023-05-02T15:06:55;15.20;91.90
51739;DHT22;37815;52.692;6.226;2023-05-02T15:11:56;14.80;91.80
51739;DHT22;37815;52.692;6.226;2023-05-02T15:16:56;14.80;91.70
51739;DHT22;37815;52.692;6.226;2023-05-02T15:21:57;14.90;91.70
51739;DHT22;37815;52.692;6.226;2023-05-02T15:26:58;14.80;91.60
51739;DHT22;37815;52.692;6.226;2023-05-02T15:31:59;14.90;91.70
51739;DHT22;37815;52.692;6.226;2023-05-02T15:36:59;15.00;91.60
51739;DHT22;37815;52.692;6.226;2023-05-02T15:42:04;15.10;90.90
51739;DHT22;37815;52.692;6.226;2023-05-02T15:47:06;15.10;90.20
51739;DHT22;37815;52.692;6.226;2023-05-02T15:52:07;15.10;90.00
51739;DHT22;37815;52.692;6.226;2023-05-02T15:57:08;15.00;89.40
51739;DHT22;37815;52.692;6.226;2023-05-02T16:02:10;14.90;88.90
51739;DHT22;37815;52.692;6.226;2023-05-02T16:07:11;14.90;88.40
51739;DHT22;37815;52.692;6.226;2023-05-02T16:12:12;14.90;88.00
51739;DHT22;37815;52.692;6.226;2023-05-02T16:17:13;14.80;87.90
51739;DHT22;37815;52.692;6.226;2023-05-02T16:22:14;14.90;87.80
51739;DHT22;37815;52.692;6.226;2023-05-02T16:27:15;15.00;88.30
51739;DHT22;37815;52.692;6.226;2023-05-02T16:32:16;14.80;88.40
51739;DHT22;37815;52.692;6.226;2023-05-02T16:37:17;14.90;88.80
51739;DHT22;37815;52.692;6.226;2023-05-02T16:42:19;14.80;89.00
51739;DHT22;37815;52.692;6.226;2023-05-02T16:47:20;14.90;89.40
51739;DHT22;37815;52.692;6.226;2023-05-02T16:52:21;15.10;90.00
51739;DHT22;37815;52.692;6.226;2023-05-02T16:57:22;14.70;90.00
51739;DHT22;37815;52.692;6.226;2023-05-02T17:02:23;14.80;90.10
51739;DHT22;37815;52.692;6.226;2023-05-02T17:07:24;14.70;90.20
51739;DHT22;37815;52.692;6.226;2023-05-02T17:12:28;14.60;89.30
51739;DHT22;37815;52.692;6.226;2023-05-02T17:17:28;14.00;88.90
51739;DHT22;37815;52.692;6.226;2023-05-02T17:22:29;14.00;89.20
51739;DHT22;37815;52.692;6.226;2023-05-02T17:27:31;14.20;89.60
51739;DHT22;37815;52.692;6.226;2023-05-02T17:32:31;14.20;88.90
51739;DHT22;37815;52.692;6.226;2023-05-02T17:37:34;14.10;88.60
51739;DHT22;37815;52.692;6.226;2023-05-02T17:42:35;14.10;88.90
51739;DHT22;37815;52.692;6.226;2023-05-02T17:47:36;14.20;88.90
51739;DHT22;37815;52.692;6.226;2023-05-02T17:52:37;14.20;89.20
51739;DHT22;37815;52.692;6.226;2023-05-02T17:57:38;14.20;89.60
51739;DHT22;37815;52.692;6.226;2023-05-02T18:02:38;14.30;89.40
51739;DHT22;37815;52.692;6.226;2023-05-02T18:07:39;14.30;89.60
51739;DHT22;37815;52.692;6.226;2023-05-02T18:12:39;14.70;90.10
51739;DHT22;37815;52.692;6.226;2023-05-02T18:17:40;14.30;90.20
51739;DHT22;37815;52.692;6.226;2023-05-02T18:22:41;14.20;90.40
51739;DHT22;37815;52.692;6.226;2023-05-02T18:27:42;14.30;90.50
51739;DHT22;37815;52.692;6.226;2023-05-02T18:32:42;14.20;90.60
51739;DHT22;37815;52.692;6.226;2023-05-02T18:37:43;14.30;90.80
51739;DHT22;37815;52.692;6.226;2023-05-02T18:42:43;14.20;91.00
51739;DHT22;37815;52.692;6.226;2023-05-02T18:47:44;14.50;91.20
51739;DHT22;37815;52.692;6.226;2023-05-02T18:52:45;14.20;91.30
51739;DHT22;37815;52.692;6.226;2023-05-02T18:57:45;14.30;91.30
51739;DHT22;37815;52.692;6.226;2023-05-02T19:02:46;14.60;91.40
51739;DHT22;37815;52.692;6.226;2023-05-02T19:07:47;14.20;91.40
51739;DHT22;37815;52.692;6.226;2023-05-02T19:12:47;14.20;91.40
51739;DHT22;37815;52.692;6.226;2023-05-02T19:17:48;14.10;91.50
51739;DHT22;37815;52.692;6.226;2023-05-02T19:22:49;14.10;91.50
51739;DHT22;37815;52.692;6.226;2023-05-02T19:27:50;14.10;91.60
51739;DHT22;37815;52.692;6.226;2023-05-02T19:32:51;14.00;91.60
51739;DHT22;37815;52.692;6.226;2023-05-02T19:37:52;14.00;91.60
51739;DHT22;37815;52.692;6.226;2023-05-02T19:42:53;14.00;91.60
51739;DHT22;37815;52.692;6.226;2023-05-02T19:47:53;14.00;91.60
51739;DHT22;37815;52.692;6.226;2023-05-02T19:52:54;14.00;91.70
51739;DHT22;37815;52.692;6.226;2023-05-02T19:57:54;14.00;91.70
51739;DHT22;37815;52.692;6.226;2023-05-02T20:02:55;13.90;91.70
51739;DHT22;37815;52.692;6.226;2023-05-02T20:07:56;13.90;91.70
51739;DHT22;37815;52.692;6.226;2023-05-02T20:12:57;13.90;91.70
51739;DHT22;37815;52.692;6.226;2023-05-02T20:17:57;14.30;91.80
51739;DHT22;37815;52.692;6.226;2023-05-02T20:22:58;13.80;91.70
51739;DHT22;37815;52.692;6.226;2023-05-02T20:27:58;13.80;91.70
51739;DHT22;37815;52.692;6.226;2023-05-02T20:32:59;13.70;91.70
51739;DHT22;37815;52.692;6.226;2023-05-02T20:37:59;14.20;91.80
51739;DHT22;37815;52.692;6.226;2023-05-02T20:43:01;14.20;91.80
51739;DHT22;37815;52.692;6.226;2023-05-02T20:48:01;13.70;91.70
51739;DHT22;37815;52.692;6.226;2023-05-02T20:53:02;13.60;91.70
51739;DHT22;37815;52.692;6.226;2023-05-02T20:58:03;13.60;91.70
51739;DHT22;37815;52.692;6.226;2023-05-02T21:03:04;13.60;91.70
51739;DHT22;37815;52.692;6.226;2023-05-02T21:08:05;13.60;91.70
51739;DHT22;37815;52.692;6.226;2023-05-02T21:13:05;13.70;91.70
51739;DHT22;37815;52.692;6.226;2023-05-02T21:18:06;13.50;91.70
51739;DHT22;37815;52.692;6.226;2023-05-02T21:23:07;13.50;91.60
51739;DHT22;37815;52.692;6.226;2023-05-02T21:28:10;13.60;91.70
51739;DHT22;37815;52.692;6.226;2023-05-02T21:33:11;13.40;91.60
51739;DHT22;37815;52.692;6.226;2023-05-02T21:38:14;13.70;91.70
51739;DHT22;37815;52.692;6.226;2023-05-02T21:43:15;13.70;91.70
51739;DHT22;37815;52.692;6.226;2023-05-02T21:48:16;13.30;91.50
51739;DHT22;37815;52.692;6.226;2023-05-02T21:53:17;13.60;91.60
51739;DHT22;37815;52.692;6.226;2023-05-02T21:58:18;13.30;91.50
51739;DHT22;37815;52.692;6.226;2023-05-02T22:03:18;13.20;91.50
51739;DHT22;37815;52.692;6.226;2023-05-02T22:08:19;13.20;91.50
51739;DHT22;37815;52.692;6.226;2023-05-02T22:13:21;13.40;91.80
51739;DHT22;37815;52.692;6.226;2023-05-02T22:18:23;13.10;91.50
51739;DHT22;37815;52.692;6.226;2023-05-02T22:23:24;13.10;91.40
51739;DHT22;37815;52.692;6.226;2023-05-02T22:28:24;13.10;91.40
51739;DHT22;37815;52.692;6.226;2023-05-02T22:33:26;13.00;91.40
51739;DHT22;37815;52.692;6.226;2023-05-02T22:38:26;13.50;91.50
51739;DHT22;37815;52.692;6.226;2023-05-02T22:43:27;13.40;91.50
51739;DHT22;37815;52.692;6.226;2023-05-02T22:48:28;13.00;91.40
51739;DHT22;37815;52.692;6.226;2023-05-02T22:53:29;13.00;91.40
51739;DHT22;37815;52.692;6.226;2023-05-02T22:58:29;12.90;91.30
51739;DHT22;37815;52.692;6.226;2023-05-02T23:03:30;12.90;91.30
51739;DHT22;37815;52.692;6.226;2023-05-02T23:08:31;13.30;91.40
51739;DHT22;37815;52.692;6.226;2023-05-02T23:13:31;12.80;91.30
51739;DHT22;37815;52.692;6.226;2023-05-02T23:18:32;12.80;91.30
51739;DHT22;37815;52.692;6.226;2023-05-02T23:23:32;12.70;91.20
51739;DHT22;37815;52.692;6.226;2023-05-02T23:28:33;12.70;91.20
51739;DHT22;37815;52.692;6.226;2023-05-02T23:33:34;12.70;91.20
51739;DHT22;37815;52.692;6.226;2023-05-02T23:38:35;12.80;91.20
51739;DHT22;37815;52.692;6.226;2023-05-02T23:43:36;12.90;91.20
51739;DHT22;37815;52.692;6.226;2023-05-02T23:48:37;13.10;91.20
51739;DHT22;37815;52.692;6.226;2023-05-02T23:53:37;13.40;91.30
51739;DHT22;37815;52.692;6.226;2023-05-02T23:58:38;12.50;91.00
